TimeCST,TemperatureF,Dew PointF,Humidity,Sea Level PressureIn,VisibilityMPH,Wind Direction,Wind SpeedMPH,Gust SpeedMPH,PrecipitationIn,Events,Conditions,WindDirDegrees,DateUTC
12:53 AM,66.9,63.0,87,30.14,0.2,ESE,11.5,-,N/A,Fog,Fog,110,2013-01-10 06:53:00
1:53 AM,66.0,62.1,87,30.14,0.2,ESE,9.2,-,N/A,Fog,Fog,110,2013-01-10 07:53:00
2:09 AM,66.2,62.6,88,30.15,0.5,ESE,10.4,-,N/A,Fog,Fog,110,2013-01-10 08:09:00
2:19 AM,66.2,62.6,88,30.15,0.2,ESE,11.5,-,N/A,Fog,Fog,110,2013-01-10 08:19:00
2:49 AM,66.2,62.6,88,30.12,0.5,ESE,13.8,-,N/A,Fog,Fog,110,2013-01-10 08:49:00
2:53 AM,66.9,63.0,87,30.10,0.5,ESE,13.8,-,N/A,Fog,Fog,110,2013-01-10 08:53:00
3:53 AM,66.0,62.1,87,30.07,0.5,ESE,12.7,-,N/A,Fog,Fog,110,2013-01-10 09:53:00
4:21 AM,66.2,62.6,88,30.09,0.2,East,10.4,-,N/A,Fog,Fog,100,2013-01-10 10:21:00
4:53 AM,66.9,63.0,87,30.07,0.5,East,10.4,-,N/A,Fog,Fog,100,2013-01-10 10:53:00
5:34 AM,68.0,64.4,88,30.09,0.2,ESE,11.5,-,N/A,Fog,Fog,110,2013-01-10 11:34:00
5:45 AM,68.0,64.4,88,30.09,0.5,ESE,15.0,-,N/A,Fog,Fog,110,2013-01-10 11:45:00
5:53 AM,68.0,64.0,87,30.06,0.5,ESE,17.3,-,N/A,Fog,Fog,110,2013-01-10 11:53:00
6:35 AM,68.0,64.4,88,30.10,2.0,ESE,15.0,25.3,N/A,,Overcast,120,2013-01-10 12:35:00
6:45 AM,69.8,64.4,83,30.10,4.0,ESE,13.8,-,N/A,,Haze,120,2013-01-10 12:45:00
6:53 AM,69.1,64.9,87,30.08,5.0,ESE,15.0,-,N/A,,Overcast,110,2013-01-10 12:53:00
7:11 AM,69.8,64.4,83,30.08,1.8,ESE,17.3,-,N/A,,Overcast,110,2013-01-10 13:11:00
7:22 AM,68.0,64.4,88,30.09,0.8,ESE,18.4,24.2,N/A,,Overcast,110,2013-01-10 13:22:00
7:33 AM,69.8,64.4,83,30.10,1.0,ESE,17.3,25.3,N/A,,Haze,110,2013-01-10 13:33:00
7:53 AM,69.1,64.9,87,30.10,2.0,ESE,12.7,-,N/A,,Overcast,120,2013-01-10 13:53:00
8:05 AM,69.8,66.2,88,30.12,4.0,ESE,13.8,-,N/A,,Overcast,120,2013-01-10 14:05:00
8:27 AM,71.6,66.2,83,30.14,5.0,SE,16.1,-,N/A,,Overcast,130,2013-01-10 14:27:00
8:53 AM,72.0,66.9,84,30.10,5.0,ESE,17.3,25.3,N/A,,Haze,120,2013-01-10 14:53:00
9:53 AM,73.0,66.9,81,30.16,6.0,SSE,9.2,-,N/A,,Haze,160,2013-01-10 15:53:00
10:53 AM,73.0,66.9,81,30.15,5.0,SE,10.4,-,0.04,Rain,Light Rain,140,2013-01-10 16:53:00
11:24 AM,69.8,64.4,83,30.15,0.8,North,9.2,-,0.04,Rain,Light Rain,350,2013-01-10 17:24:00
11:40 AM,62.6,59.0,88,30.15,0.2,NW,13.8,-,0.06,Fog-Rain,Light Rain,320,2013-01-10 17:40:00
11:53 AM,64.9,60.1,84,30.14,1.0,NW,18.4,-,0.16,Rain,Heavy Rain,310,2013-01-10 17:53:00
12:00 PM,64.4,60.8,88,30.15,1.0,West,21.9,-,0.09,Rain,Heavy Rain,270,2013-01-10 18:00:00
12:06 PM,64.4,60.8,88,30.14,1.0,NW,13.8,26.5,N/A,Rain,Heavy Rain,310,2013-01-10 18:06:00
12:16 PM,62.6,60.8,94,30.12,1.0,North,16.1,-,0.25,Rain,Rain,10,2013-01-10 18:16:00
12:38 PM,62.6,59.0,88,30.13,2.0,NNE,8.1,-,0.33,Rain,Rain,20,2013-01-10 18:38:00
12:53 PM,62.1,57.9,86,30.10,2.0,NNE,11.5,-,0.39,Rain,Rain,30,2013-01-10 18:53:00
1:53 PM,63.0,59.0,87,30.11,3.0,East,4.6,-,0.30,Rain,Rain,90,2013-01-10 19:53:00
2:53 PM,62.1,57.9,86,30.09,3.0,East,11.5,-,0.27,Rain,Light Rain,100,2013-01-10 20:53:00
3:53 PM,64.9,61.0,87,30.03,3.0,ESE,17.3,-,0.15,Rain,Light Rain,110,2013-01-10 21:53:00
4:53 PM,66.0,61.0,84,30.01,10.0,SE,18.4,24.2,0.03,,Overcast,130,2013-01-10 22:53:00
5:22 PM,66.2,60.8,83,30.02,10.0,SE,12.7,-,N/A,,Partly Cloudy,140,2013-01-10 23:22:00
5:53 PM,66.9,61.0,81,29.99,10.0,Variable,5.8,-,N/A,,Clear,0,2013-01-10 23:53:00
6:53 PM,68.0,61.0,78,30.02,10.0,South,5.8,-,N/A,,Clear,170,2013-01-11 00:53:00
7:53 PM,68.0,61.0,78,30.03,10.0,SE,11.5,-,N/A,,Clear,140,2013-01-11 01:53:00
8:53 PM,66.9,60.1,79,30.06,10.0,SSE,4.6,-,N/A,,Clear,150,2013-01-11 02:53:00
9:53 PM,66.0,60.1,81,30.09,10.0,SSE,3.5,-,N/A,,Overcast,150,2013-01-11 03:53:00
10:00 PM,66.2,60.8,83,30.11,10.0,SSE,4.6,-,N/A,,Mostly Cloudy,150,2013-01-11 04:00:00
10:20 PM,66.2,60.8,83,30.10,10.0,SSE,4.6,-,N/A,,Overcast,150,2013-01-11 04:20:00
10:53 PM,66.2,60.8,83,30.09,10.0,SSE,9.2,-,N/A,,Mostly Cloudy,150,2013-01-11 04:53:00
11:01 PM,66.2,60.8,83,30.09,10.0,SSE,8.1,-,N/A,,Overcast,150,2013-01-11 05:01:00
11:19 PM,68.0,62.6,83,30.10,10.0,SSE,9.2,-,N/A,,Overcast,150,2013-01-11 05:19:00
11:32 PM,68.0,62.6,83,30.09,9.0,SSE,9.2,-,N/A,,Overcast,160,2013-01-11 05:32:00
11:53 PM,68.0,62.1,81,30.07,8.0,South,12.7,-,N/A,,Overcast,170,2013-01-11 05:53:00